createdAt,value
2019-04-23T00:00:13.530Z,12.88
2019-04-23T00:01:23.596Z,12.88
2019-04-23T00:02:19.732Z,12.88
2019-04-23T00:04:18.326Z,12.88
2019-04-23T00:05:21.409Z,12.88
2019-04-23T00:07:27.593Z,12.88
2019-04-23T00:10:19.360Z,12.75
2019-04-23T00:11:20.083Z,12.75
2019-04-23T00:12:30.095Z,12.75
2019-04-23T00:13:26.682Z,12.75
2019-04-23T00:14:21.072Z,12.75
2019-04-23T00:15:21.781Z,12.75
2019-04-23T00:16:23.990Z,12.75
2019-04-23T00:17:26.102Z,12.75
2019-04-23T00:18:24.844Z,12.75
2019-04-23T00:19:18.921Z,12.75
2019-04-23T00:20:18.878Z,12.75
2019-04-23T00:21:24.301Z,12.75
2019-04-23T00:23:16.382Z,12.75
2019-04-23T00:24:28.199Z,12.75
2019-04-23T00:26:24.078Z,12.63
2019-04-23T00:27:29.273Z,12.63
2019-04-23T00:28:20.454Z,12.63
2019-04-23T00:29:18.945Z,12.63
2019-04-23T00:30:20.258Z,12.63
2019-04-23T00:31:18.510Z,12.63
2019-04-23T00:32:25.162Z,12.63
2019-04-23T00:33:21.829Z,12.63
2019-04-23T00:34:17.801Z,12.63
2019-04-23T00:35:18.075Z,12.63
2019-04-23T00:36:28.782Z,12.50
2019-04-23T00:37:25.458Z,12.50
2019-04-23T00:39:18.915Z,12.50
2019-04-23T00:40:20.410Z,12.50
2019-04-23T00:41:16.209Z,12.50
2019-04-23T00:42:23.527Z,12.50
2019-04-23T00:43:21.841Z,12.50
2019-04-23T00:44:29.016Z,12.50
2019-04-23T00:45:18.153Z,12.50
2019-04-23T00:46:25.185Z,12.50
2019-04-23T00:47:20.934Z,12.37
2019-04-23T00:48:28.248Z,12.37
2019-04-23T00:50:22.885Z,12.37
2019-04-23T00:51:18.138Z,12.37
2019-04-23T00:52:24.058Z,12.37
2019-04-23T00:55:15.897Z,12.25
2019-04-23T00:56:32.140Z,12.25
2019-04-23T00:57:24.428Z,12.25
2019-04-23T00:58:21.192Z,12.25
2019-04-23T00:59:22.259Z,12.25
2019-04-23T01:00:26.388Z,12.25
2019-04-23T01:01:18.039Z,12.25
2019-04-23T01:02:25.027Z,12.25
2019-04-23T01:03:17.425Z,12.25
2019-04-23T01:04:20.477Z,12.25
2019-04-23T01:05:18.330Z,12.25
2019-04-23T01:06:19.344Z,12.25
2019-04-23T01:07:18.870Z,12.25
2019-04-23T01:09:14.067Z,12.25
2019-04-23T01:10:24.600Z,12.25
2019-04-23T01:11:16.356Z,12.25
2019-04-23T01:12:22.829Z,12.25
2019-04-23T01:13:25.175Z,12.25
2019-04-23T01:15:25.456Z,12.25
2019-04-23T01:16:18.105Z,12.25
2019-04-23T01:17:30.241Z,12.25
2019-04-23T01:18:32.250Z,12.25
2019-04-23T01:19:24.543Z,12.25
2019-04-23T01:20:58.857Z,12.25
2019-04-23T01:22:00.031Z,12.25
2019-04-23T01:22:59.038Z,12.25
2019-04-23T01:24:04.379Z,12.25
2019-04-23T01:25:11.227Z,12.25
2019-04-23T01:26:15.465Z,12.25
2019-04-23T01:28:17.461Z,12.13
2019-04-23T01:29:12.621Z,12.13
2019-04-23T01:30:19.707Z,12.13
2019-04-23T01:31:16.558Z,12.13
2019-04-23T01:34:29.172Z,12.13
2019-04-23T01:36:21.476Z,12.13
2019-04-23T01:37:26.371Z,12.13
2019-04-23T01:38:32.508Z,12.13
2019-04-23T01:40:27.274Z,12.13
2019-04-23T01:42:37.354Z,12.13
2019-04-23T01:43:28.862Z,12.13
2019-04-23T01:44:33.754Z,12.13
2019-04-23T01:45:26.066Z,12.13
2019-04-23T01:46:23.485Z,12.13
2019-04-23T01:47:24.444Z,12.00
2019-04-23T01:48:13.268Z,12.00
2019-04-23T01:50:14.272Z,12.00
2019-04-23T01:51:31.124Z,12.00
2019-04-23T01:52:16.147Z,12.00
2019-04-23T01:54:25.570Z,12.00
2019-04-23T01:56:24.291Z,12.00
2019-04-23T01:59:24.628Z,12.00
2019-04-23T02:00:17.351Z,12.00
2019-04-23T02:01:25.718Z,11.88
2019-04-23T02:02:31.637Z,11.88
2019-04-23T02:03:15.213Z,11.88
2019-04-23T02:04:18.818Z,11.88
2019-04-23T02:06:16.639Z,11.75
2019-04-23T02:07:29.950Z,11.75
2019-04-23T02:08:20.851Z,11.75
2019-04-23T02:09:25.522Z,11.75
2019-04-23T02:10:38.040Z,11.75
2019-04-23T02:11:11.521Z,11.75
2019-04-23T02:12:28.272Z,11.75
2019-04-23T02:14:18.251Z,11.63
2019-04-23T02:15:23.117Z,11.63
2019-04-23T02:16:24.588Z,11.63
2019-04-23T02:17:15.738Z,11.63
2019-04-23T02:19:23.572Z,11.50
2019-04-23T02:21:22.568Z,11.50
2019-04-23T02:22:31.544Z,11.50
2019-04-23T02:23:26.240Z,11.50
2019-04-23T02:25:27.993Z,11.38
2019-04-23T02:26:17.061Z,11.38
2019-04-23T02:27:29.603Z,11.38
2019-04-23T02:28:25.465Z,11.38
2019-04-23T02:29:38.122Z,11.38
2019-04-23T02:31:44.819Z,11.38
2019-04-23T02:32:34.054Z,11.38
2019-04-23T02:33:36.279Z,11.38
2019-04-23T02:35:42.376Z,11.38
2019-04-23T02:36:29.484Z,11.38
2019-04-23T02:39:22.631Z,11.38
2019-04-23T02:40:38.042Z,11.38
2019-04-23T02:41:25.134Z,11.38
2019-04-23T02:42:49.607Z,11.38
2019-04-23T02:44:36.926Z,11.38
2019-04-23T02:46:09.815Z,11.38
2019-04-23T02:47:32.547Z,11.38
2019-04-23T02:48:30.727Z,11.38
2019-04-23T02:49:27.166Z,11.38
2019-04-23T02:51:22.162Z,11.38
2019-04-23T02:52:34.240Z,11.38
2019-04-23T02:53:44.298Z,11.50
2019-04-23T02:54:29.130Z,11.50
2019-04-23T02:55:39.284Z,11.50
2019-04-23T02:56:37.629Z,11.50
2019-04-23T02:59:39.948Z,11.50
2019-04-23T03:01:21.717Z,11.50
2019-04-23T03:03:38.615Z,11.50
2019-04-23T03:05:19.851Z,11.50
2019-04-23T03:06:38.116Z,11.50
2019-04-23T03:07:39.011Z,11.50
2019-04-23T03:09:36.397Z,11.50
2019-04-23T03:10:31.327Z,11.50
2019-04-23T03:15:39.503Z,11.63
2019-04-23T03:16:38.163Z,11.63
2019-04-23T03:17:27.124Z,11.63
2019-04-23T03:19:15.274Z,11.63
2019-04-23T03:20:35.037Z,11.63
2019-04-23T03:21:35.652Z,11.63
2019-04-23T03:22:14.569Z,11.63
2019-04-23T03:23:29.151Z,11.63
2019-04-23T03:24:38.883Z,11.63
2019-04-23T03:28:37.699Z,11.63
2019-04-23T03:29:26.452Z,11.63
2019-04-23T03:30:29.655Z,11.63
2019-04-23T03:32:45.288Z,11.63
2019-04-23T03:34:02.631Z,11.63
2019-04-23T03:36:10.868Z,11.63
2019-04-23T03:37:04.105Z,11.63
2019-04-23T03:39:44.223Z,11.63
2019-04-23T03:40:13.775Z,11.63
2019-04-23T03:41:21.654Z,11.63
2019-04-23T03:42:38.719Z,11.63
2019-04-23T03:43:35.336Z,11.63
2019-04-23T03:44:27.093Z,11.63
2019-04-23T03:46:29.316Z,11.63
2019-04-23T03:47:33.079Z,11.63
2019-04-23T03:48:26.206Z,11.63
2019-04-23T03:49:32.586Z,11.63
2019-04-23T03:51:38.281Z,11.63
2019-04-23T03:52:34.880Z,11.63
2019-04-23T03:55:28.059Z,11.63
2019-04-23T03:56:29.457Z,11.63
2019-04-23T03:57:20.291Z,11.63
2019-04-23T03:58:39.098Z,11.63
2019-04-23T03:59:39.361Z,11.63
2019-04-23T04:00:24.889Z,11.75
2019-04-23T04:01:29.875Z,11.75
2019-04-23T04:02:34.026Z,11.75
2019-04-23T04:03:53.004Z,11.75
2019-04-23T04:08:25.904Z,11.75
2019-04-23T04:09:37.006Z,11.88
2019-04-23T04:10:42.191Z,11.88
2019-04-23T04:11:25.619Z,11.88
2019-04-23T04:12:21.750Z,11.88
2019-04-23T04:14:38.225Z,12.00
2019-04-23T04:15:35.630Z,12.00
2019-04-23T04:16:17.812Z,12.00
2019-04-23T04:18:38.823Z,12.00
2019-04-23T04:20:24.813Z,12.00
2019-04-23T04:21:35.839Z,12.00
2019-04-23T04:22:43.888Z,12.00
2019-04-23T04:25:33.593Z,12.13
2019-04-23T04:26:21.084Z,12.13
2019-04-23T04:27:43.332Z,12.13
2019-04-23T04:28:23.606Z,12.13
2019-04-23T04:29:40.907Z,12.13
2019-04-23T04:32:33.717Z,12.13
2019-04-23T04:33:29.810Z,12.13
2019-04-23T04:34:56.079Z,12.13
2019-04-23T04:35:27.297Z,12.13
2019-04-23T04:36:32.574Z,12.13
2019-04-23T04:37:46.279Z,12.13
2019-04-23T04:39:34.053Z,12.13
2019-04-23T04:40:23.548Z,12.13
2019-04-23T04:41:26.056Z,12.13
2019-04-23T04:45:42.237Z,12.25
2019-04-23T04:47:36.809Z,12.25
2019-04-23T04:48:35.458Z,12.25
2019-04-23T04:49:21.451Z,12.25
2019-04-23T04:50:22.793Z,12.25
2019-04-23T04:51:46.245Z,12.25
2019-04-23T04:53:44.932Z,12.37
2019-04-23T04:55:21.184Z,12.37
2019-04-23T04:56:36.084Z,12.37
2019-04-23T04:57:35.963Z,12.37
2019-04-23T04:58:31.736Z,12.50
2019-04-23T04:59:22.760Z,12.50
2019-04-23T05:01:13.776Z,12.50
2019-04-23T05:02:41.724Z,12.50
2019-04-23T05:03:26.930Z,12.63
2019-04-23T05:04:39.924Z,12.63
2019-04-23T05:06:02.741Z,12.63
2019-04-23T05:06:37.888Z,12.63
2019-04-23T05:08:23.871Z,12.75
2019-04-23T05:10:28.832Z,12.75
2019-04-23T05:12:27.567Z,12.88
2019-04-23T05:13:41.270Z,12.88
2019-04-23T05:15:16.839Z,13.00
2019-04-23T05:16:27.564Z,13.00
2019-04-23T05:17:28.085Z,13.00
2019-04-23T05:18:31.744Z,13.00
2019-04-23T05:19:40.760Z,13.00
2019-04-23T05:20:26.105Z,13.13
2019-04-23T05:21:26.884Z,13.13
2019-04-23T05:23:25.460Z,13.25
2019-04-23T05:24:28.712Z,13.25
2019-04-23T05:25:24.370Z,13.25
2019-04-23T05:26:26.483Z,13.38
2019-04-23T05:27:28.942Z,13.38
2019-04-23T05:28:28.311Z,13.38
2019-04-23T05:29:27.625Z,13.38
2019-04-23T05:31:23.135Z,13.50
2019-04-23T05:32:28.741Z,13.50
2019-04-23T05:33:17.127Z,13.62
2019-04-23T05:34:22.626Z,13.62
2019-04-23T05:36:30.846Z,13.75
2019-04-23T05:37:33.408Z,13.75
2019-04-23T05:38:38.013Z,13.75
2019-04-23T05:39:31.325Z,13.75
2019-04-23T05:40:27.708Z,13.88
2019-04-23T05:41:17.232Z,13.88
2019-04-23T05:43:19.279Z,14.00
2019-04-23T05:45:16.656Z,14.00
2019-04-23T05:48:23.525Z,14.13
2019-04-23T05:49:26.176Z,14.25
2019-04-23T05:50:35.769Z,14.25
2019-04-23T05:51:31.183Z,14.25
2019-04-23T05:53:27.249Z,14.38
2019-04-23T05:55:13.613Z,14.38
2019-04-23T05:56:25.647Z,14.50
2019-04-23T05:57:20.278Z,14.50
2019-04-23T05:58:30.063Z,14.50
2019-04-23T05:59:28.125Z,14.63
2019-04-23T06:02:26.772Z,14.75
2019-04-23T06:04:19.542Z,14.87
2019-04-23T06:05:19.415Z,15.00
2019-04-23T06:06:21.714Z,15.13
2019-04-23T06:07:22.207Z,15.25
2019-04-23T06:10:19.733Z,15.75
2019-04-23T06:11:26.014Z,15.88
2019-04-23T06:12:13.790Z,16.12
2019-04-23T06:13:33.803Z,16.25
2019-04-23T06:14:20.346Z,16.37
2019-04-23T06:16:31.455Z,16.62
2019-04-23T06:17:21.684Z,16.75
2019-04-23T06:19:20.809Z,17.00
2019-04-23T06:20:31.497Z,17.00
2019-04-23T06:21:30.917Z,17.12
2019-04-23T06:22:31.501Z,17.12
2019-04-23T06:23:33.085Z,17.25
2019-04-23T06:24:29.008Z,17.37
2019-04-23T06:25:47.811Z,17.37
2019-04-23T06:27:26.031Z,17.50
2019-04-23T06:28:27.707Z,17.62
2019-04-23T06:30:33.206Z,17.75
2019-04-23T06:31:30.854Z,17.87
2019-04-23T06:32:26.067Z,17.87
2019-04-23T06:33:25.613Z,18.00
2019-04-23T06:35:22.549Z,18.12
2019-04-23T06:39:15.852Z,18.37
2019-04-23T06:44:25.587Z,18.62
2019-04-23T06:45:26.041Z,18.75
2019-04-23T06:46:30.703Z,18.87
2019-04-23T06:47:17.049Z,19.00
2019-04-23T06:48:32.010Z,19.00
2019-04-23T06:50:27.174Z,19.12
2019-04-23T06:51:27.231Z,19.25
2019-04-23T06:52:19.216Z,19.37
2019-04-23T06:54:25.584Z,19.37
2019-04-23T06:56:26.825Z,19.50
2019-04-23T06:57:22.333Z,19.62
2019-04-23T06:58:20.801Z,19.62
2019-04-23T06:59:24.475Z,19.62
2019-04-23T07:00:29.350Z,19.75
2019-04-23T07:01:09.697Z,19.75
2019-04-23T07:02:30.619Z,19.87
2019-04-23T07:04:29.051Z,20.00
2019-04-23T07:05:23.850Z,20.00
2019-04-23T07:07:46.567Z,20.12
2019-04-23T07:08:34.198Z,20.25
2019-04-23T07:09:10.787Z,20.25
2019-04-23T07:10:25.247Z,20.25
2019-04-23T07:11:28.789Z,20.37
2019-04-23T07:12:22.004Z,20.50
2019-04-23T07:13:35.524Z,20.50
2019-04-23T07:14:34.071Z,20.50
2019-04-23T07:16:21.585Z,20.62
2019-04-23T07:17:13.859Z,20.62
2019-04-23T07:18:27.844Z,20.75
2019-04-23T07:19:18.403Z,20.75
2019-04-23T07:20:15.216Z,20.75
2019-04-23T07:21:22.132Z,20.88
2019-04-23T07:22:21.600Z,21.00
2019-04-23T07:23:34.292Z,21.00
2019-04-23T07:24:21.413Z,21.00
2019-04-23T07:25:22.361Z,21.12
2019-04-23T07:29:25.944Z,21.62
2019-04-23T07:30:13.109Z,21.62
2019-04-23T07:31:29.898Z,21.62
2019-04-23T07:32:29.009Z,21.50
2019-04-23T07:34:20.325Z,21.37
2019-04-23T07:35:13.394Z,21.37
2019-04-23T07:38:32.758Z,21.62
2019-04-23T07:39:23.547Z,21.75
2019-04-23T07:41:30.289Z,21.50
2019-04-23T07:42:24.750Z,21.62
2019-04-23T07:43:22.479Z,21.75
2019-04-23T07:44:21.036Z,21.87
2019-04-23T07:45:17.543Z,22.00
2019-04-23T07:46:33.193Z,22.13
2019-04-23T07:48:16.455Z,22.50
2019-04-23T07:49:25.011Z,22.50
2019-04-23T07:50:38.174Z,22.62
2019-04-23T07:51:27.708Z,22.62
2019-04-23T07:52:15.026Z,22.75
2019-04-23T07:53:27.306Z,22.87
2019-04-23T07:55:36.255Z,23.12
2019-04-23T07:56:13.140Z,23.25
2019-04-23T07:57:26.802Z,23.38
2019-04-23T07:58:27.261Z,23.25
2019-04-23T07:59:25.343Z,23.38
2019-04-23T08:00:36.642Z,23.25
2019-04-23T08:01:25.258Z,23.25
2019-04-23T08:02:26.910Z,23.25
2019-04-23T08:03:30.711Z,23.25
2019-04-23T08:04:31.737Z,23.25
2019-04-23T08:09:20.476Z,23.25
2019-04-23T08:10:18.580Z,23.12
2019-04-23T08:11:30.496Z,23.12
2019-04-23T08:13:32.323Z,23.25
2019-04-23T08:14:13.665Z,23.25
2019-04-23T08:15:28.107Z,23.25
2019-04-23T08:17:24.369Z,23.50
2019-04-23T08:18:29.750Z,23.62
2019-04-23T08:19:34.950Z,23.75
2019-04-23T08:20:16.352Z,23.75
2019-04-23T08:21:29.573Z,23.75
2019-04-23T08:22:30.365Z,23.87
2019-04-23T08:23:16.481Z,23.87
2019-04-23T08:25:31.934Z,23.87
2019-04-23T08:27:21.504Z,23.75
2019-04-23T08:28:37.186Z,23.87
2019-04-23T08:29:22.125Z,23.75
2019-04-23T08:30:24.047Z,23.75
2019-04-23T08:33:23.376Z,24.00
2019-04-23T08:34:25.682Z,24.00
2019-04-23T08:35:23.209Z,23.87
2019-04-23T08:36:27.288Z,24.12
2019-04-23T08:37:15.425Z,24.25
2019-04-23T08:38:25.960Z,24.37
2019-04-23T08:39:18.165Z,24.37
2019-04-23T08:40:29.697Z,24.50
2019-04-23T08:41:22.921Z,24.50
2019-04-23T08:44:28.832Z,24.75
2019-04-23T08:45:22.674Z,24.75
2019-04-23T08:46:33.038Z,25.00
2019-04-23T08:49:29.573Z,25.00
2019-04-23T08:50:29.258Z,25.00
2019-04-23T08:51:38.939Z,25.00
2019-04-23T08:52:27.176Z,25.12
2019-04-23T08:54:25.298Z,24.87
2019-04-23T08:55:34.896Z,24.87
2019-04-23T08:56:15.117Z,24.75
2019-04-23T08:58:23.620Z,24.37
2019-04-23T08:59:33.142Z,24.50
2019-04-23T09:00:31.432Z,24.50
2019-04-23T09:01:27.628Z,24.63
2019-04-23T09:02:31.254Z,24.50
2019-04-23T09:03:25.813Z,24.63
2019-04-23T09:05:32.429Z,24.50
2019-04-23T09:06:21.821Z,24.50
2019-04-23T09:09:27.139Z,24.75
2019-04-23T09:10:26.380Z,24.87
2019-04-23T09:11:32.407Z,24.87
2019-04-23T09:14:20.549Z,25.00
2019-04-23T09:15:33.020Z,25.12
2019-04-23T09:16:28.440Z,25.25
2019-04-23T09:17:30.486Z,25.25
2019-04-23T09:21:30.854Z,25.12
2019-04-23T09:22:30.972Z,25.00
2019-04-23T09:23:21.130Z,25.12
2019-04-23T09:24:27.666Z,25.12
2019-04-23T09:26:24.634Z,25.12
2019-04-23T09:27:27.529Z,25.12
2019-04-23T09:28:38.857Z,25.25
2019-04-23T09:29:32.106Z,25.25
2019-04-23T09:31:23.153Z,25.12
2019-04-23T09:32:29.859Z,25.00
2019-04-23T09:33:36.362Z,25.00
2019-04-23T09:34:31.514Z,25.12
2019-04-23T09:35:27.570Z,25.12
2019-04-23T09:36:30.810Z,25.12
2019-04-23T09:37:26.768Z,25.12
2019-04-23T09:40:31.505Z,25.37
2019-04-23T09:41:16.677Z,25.37
2019-04-23T09:42:31.873Z,25.37
2019-04-23T09:44:48.560Z,25.25
2019-04-23T09:45:27.989Z,25.12
2019-04-23T09:46:25.712Z,25.25
2019-04-23T09:48:11.979Z,25.25
2019-04-23T09:49:31.092Z,25.12
2019-04-23T09:50:33.196Z,25.25
2019-04-23T09:53:27.751Z,25.25
2019-04-23T09:54:23.615Z,25.25
2019-04-23T09:55:22.202Z,25.25
2019-04-23T09:56:32.848Z,25.25
2019-04-23T09:57:26.500Z,25.25
2019-04-23T09:59:31.232Z,25.50
2019-04-23T10:00:30.872Z,25.50
2019-04-23T10:01:25.892Z,25.62
2019-04-23T10:02:17.519Z,25.62
2019-04-23T10:03:04.878Z,25.50
2019-04-23T10:04:08.744Z,25.62
2019-04-23T10:05:07.284Z,25.75
2019-04-23T10:06:07.734Z,25.75
2019-04-23T10:07:15.225Z,25.88
2019-04-23T10:08:07.927Z,25.88
2019-04-23T10:09:02.657Z,25.88
2019-04-23T10:09:59.697Z,25.88
2019-04-23T10:10:59.779Z,25.88
2019-04-23T10:12:00.866Z,25.88
2019-04-23T10:13:00.179Z,25.88
2019-04-23T10:14:00.588Z,25.88
2019-04-23T10:15:09.343Z,25.88
2019-04-23T10:16:00.097Z,25.88
2019-04-23T10:16:59.988Z,25.88
2019-04-23T10:18:00.275Z,26.00
2019-04-23T10:19:03.814Z,26.00
2019-04-23T10:20:00.682Z,26.00
2019-04-23T10:20:59.337Z,26.00
2019-04-23T10:21:59.703Z,26.00
2019-04-23T10:23:00.182Z,26.00
2019-04-23T10:23:59.405Z,25.88
2019-04-23T10:24:59.526Z,25.75
2019-04-23T10:25:59.374Z,25.75
2019-04-23T10:27:00.089Z,25.75
2019-04-23T10:28:03.198Z,25.88
2019-04-23T10:29:00.104Z,25.88
2019-04-23T10:29:59.728Z,26.00
2019-04-23T10:31:00.668Z,25.88
2019-04-23T10:31:59.788Z,25.88
2019-04-23T10:32:59.545Z,25.75
2019-04-23T10:34:00.098Z,25.88
2019-04-23T10:35:06.712Z,25.88
2019-04-23T10:36:03.244Z,26.00
2019-04-23T10:36:59.679Z,26.12
2019-04-23T10:38:04.525Z,26.25
2019-04-23T10:39:06.129Z,26.25
2019-04-23T10:40:03.558Z,26.50
2019-04-23T10:41:00.368Z,26.50
2019-04-23T10:42:02.851Z,26.50
2019-04-23T10:43:01.258Z,26.50
2019-04-23T10:44:00.769Z,26.50
2019-04-23T10:45:14.983Z,26.50
2019-04-23T10:46:16.875Z,26.50
2019-04-23T10:47:26.690Z,26.62
2019-04-23T10:49:40.503Z,26.75
2019-04-23T10:50:35.043Z,26.62
2019-04-23T10:51:33.984Z,26.50
2019-04-23T10:52:26.430Z,26.50
2019-04-23T10:53:32.910Z,26.50
2019-04-23T10:54:37.697Z,26.50
2019-04-23T10:57:19.947Z,26.50
2019-04-23T10:58:15.768Z,26.50
2019-04-23T10:59:28.780Z,26.50
2019-04-23T11:00:30.712Z,26.50
2019-04-23T11:01:27.919Z,26.37
2019-04-23T11:03:42.233Z,26.62
2019-04-23T11:04:44.731Z,26.62
2019-04-23T11:05:35.470Z,26.62
2019-04-23T11:06:32.517Z,26.62
2019-04-23T11:07:30.864Z,26.62
2019-04-23T11:08:25.624Z,26.62
2019-04-23T11:09:42.482Z,26.62
2019-04-23T11:10:22.007Z,26.75
2019-04-23T11:11:32.622Z,27.00
2019-04-23T11:12:37.123Z,27.13
2019-04-23T11:13:31.847Z,27.25
2019-04-23T11:15:44.161Z,27.37
2019-04-23T11:17:35.473Z,27.25
2019-04-23T11:18:38.327Z,27.13
2019-04-23T11:19:32.016Z,27.00
2019-04-23T11:20:25.425Z,26.87
2019-04-23T11:21:24.001Z,26.87
2019-04-23T11:22:42.598Z,26.62
2019-04-23T11:23:29.062Z,26.75
2019-04-23T11:24:38.057Z,26.75
2019-04-23T11:25:31.522Z,26.75
2019-04-23T11:26:24.397Z,26.87
2019-04-23T11:28:27.472Z,27.25
2019-04-23T11:29:34.037Z,27.50
2019-04-23T11:31:25.891Z,27.50
2019-04-23T11:34:50.356Z,27.75
2019-04-23T11:36:49.165Z,27.87
2019-04-23T11:37:29.843Z,27.87
2019-04-23T11:37:58.721Z,27.50
2019-04-23T11:38:50.926Z,27.87
2019-04-23T11:39:32.646Z,28.00
2019-04-23T11:40:26.148Z,28.25
2019-04-23T11:42:35.714Z,28.38
2019-04-23T11:43:22.716Z,28.38
2019-04-23T11:44:36.497Z,28.38
2019-04-23T11:46:32.287Z,28.25
2019-04-23T11:49:44.970Z,28.12
2019-04-23T11:51:41.828Z,28.00
2019-04-23T11:52:36.568Z,28.12
2019-04-23T11:53:35.977Z,28.25
2019-04-23T11:55:41.237Z,28.25
2019-04-23T11:58:26.939Z,28.12
2019-04-23T11:59:36.113Z,28.00
2019-04-23T12:00:38.566Z,27.75
2019-04-23T12:01:42.885Z,27.75
2019-04-23T12:02:35.439Z,27.87
2019-04-23T12:03:26.564Z,27.87
2019-04-23T12:06:24.362Z,28.38
2019-04-23T12:08:36.503Z,28.62
2019-04-23T12:10:42.628Z,28.12
2019-04-23T12:12:25.134Z,28.12
2019-04-23T12:12:28.515Z,28.12
2019-04-23T12:15:32.733Z,28.12
2019-04-23T12:16:27.960Z,28.00
2019-04-23T12:18:32.015Z,28.00
2019-04-23T12:19:39.298Z,28.12
2019-04-23T12:22:29.530Z,28.38
2019-04-23T12:23:33.319Z,28.38
2019-04-23T12:25:32.741Z,28.50
2019-04-23T12:27:30.675Z,28.50
2019-04-23T12:28:30.578Z,28.50
2019-04-23T12:29:33.611Z,28.62
2019-04-23T12:31:31.472Z,28.75
2019-04-23T12:33:20.344Z,29.00
2019-04-23T12:34:35.725Z,28.87
2019-04-23T12:35:19.308Z,28.87
2019-04-23T12:36:26.201Z,29.12
2019-04-23T12:37:25.689Z,29.12
2019-04-23T12:38:23.846Z,29.12
2019-04-23T12:40:24.864Z,28.87
2019-04-23T12:41:25.719Z,28.62
2019-04-23T12:42:48.454Z,28.62
2019-04-23T12:43:25.576Z,28.62
2019-04-23T12:44:30.612Z,28.62
2019-04-23T12:45:31.765Z,28.75
2019-04-23T12:46:33.093Z,28.75
2019-04-23T12:48:31.164Z,28.75
2019-04-23T12:49:45.858Z,28.75
2019-04-23T12:52:34.347Z,28.25
2019-04-23T12:53:25.866Z,28.00
2019-04-23T12:54:41.490Z,27.87
2019-04-23T12:57:17.998Z,28.00
2019-04-23T12:58:26.906Z,28.00
2019-04-23T12:59:27.222Z,28.00
2019-04-23T13:01:35.853Z,27.87
2019-04-23T13:03:29.820Z,28.00
2019-04-23T13:04:35.711Z,28.00
2019-04-23T13:05:27.045Z,27.87
2019-04-23T13:07:36.981Z,27.75
2019-04-23T13:09:41.826Z,27.87
2019-04-23T13:10:30.257Z,27.75
2019-04-23T13:11:32.561Z,27.75
2019-04-23T13:12:37.781Z,27.62
2019-04-23T13:13:27.986Z,27.62
2019-04-23T13:14:36.359Z,27.75
2019-04-23T13:15:30.888Z,27.75
2019-04-23T13:16:39.903Z,27.87
2019-04-23T13:19:39.854Z,27.62
2019-04-23T13:22:31.868Z,27.50
2019-04-23T13:26:24.805Z,27.37
2019-04-23T13:27:38.396Z,27.50
2019-04-23T13:28:27.991Z,27.75
2019-04-23T13:32:27.816Z,27.87
2019-04-23T13:33:34.788Z,27.87
2019-04-23T13:34:38.540Z,27.87
2019-04-23T13:37:36.958Z,27.50
2019-04-23T13:39:20.415Z,27.75
2019-04-23T13:40:29.250Z,27.75
2019-04-23T13:41:17.407Z,27.50
2019-04-23T13:42:42.068Z,27.50
2019-04-23T13:44:17.571Z,27.50
2019-04-23T13:46:21.774Z,27.25
2019-04-23T13:47:42.977Z,26.87
2019-04-23T13:49:27.780Z,26.87
2019-04-23T13:50:37.243Z,26.75
2019-04-23T13:51:27.374Z,26.62
2019-04-23T13:52:43.280Z,26.25
2019-04-23T13:53:42.630Z,26.12
2019-04-23T13:54:50.214Z,26.00
2019-04-23T13:55:22.890Z,26.00
2019-04-23T13:56:47.911Z,26.00
2019-04-23T13:57:59.306Z,26.12
2019-04-23T13:58:21.583Z,26.25
2019-04-23T14:00:25.063Z,26.00
2019-04-23T14:01:30.762Z,26.12
2019-04-23T14:02:40.348Z,26.37
2019-04-23T14:04:24.876Z,26.87
2019-04-23T14:05:28.123Z,27.00
2019-04-23T14:06:25.659Z,27.13
2019-04-23T14:07:30.377Z,27.13
2019-04-23T14:10:20.119Z,26.75
2019-04-23T14:11:26.018Z,26.50
2019-04-23T14:12:32.213Z,26.37
2019-04-23T14:14:28.287Z,26.25
2019-04-23T14:38:22.110Z,23.75
2019-04-23T14:42:24.424Z,24.37
2019-04-23T14:43:23.871Z,24.50
2019-04-23T14:44:11.391Z,24.63
2019-04-23T14:46:33.725Z,24.87
2019-04-23T14:47:23.875Z,25.00
2019-04-23T14:48:17.007Z,25.00
2019-04-23T14:49:13.209Z,25.12
2019-04-23T14:52:21.656Z,25.37
2019-04-23T14:54:24.950Z,25.50
2019-04-23T14:56:20.194Z,25.50
2019-04-23T14:58:25.461Z,25.62
2019-04-23T15:01:35.373Z,25.62
2019-04-23T15:02:13.899Z,25.75
2019-04-23T15:03:27.178Z,25.75
2019-04-23T15:04:19.230Z,25.75
2019-04-23T15:06:27.735Z,25.88
2019-04-23T15:07:23.003Z,25.88
2019-04-23T15:08:15.615Z,25.88
2019-04-23T15:09:13.973Z,25.88
2019-04-23T15:14:47.331Z,26.00
2019-04-23T15:15:31.878Z,26.00
2019-04-23T15:16:39.884Z,26.00
2019-04-23T15:19:10.999Z,26.00
2019-04-23T15:22:07.840Z,26.00
2019-04-23T15:24:23.180Z,26.12
2019-04-23T15:26:47.736Z,26.12
2019-04-23T15:28:07.315Z,26.12
2019-04-23T15:29:02.778Z,26.12
2019-04-23T15:30:10.614Z,26.12
2019-04-23T15:31:23.487Z,26.12
2019-04-23T15:34:04.269Z,26.12
2019-04-23T15:36:02.267Z,26.12
2019-04-23T15:39:55.140Z,26.37
2019-04-23T15:50:29.760Z,26.50
2019-04-23T16:10:22.271Z,26.25
2019-04-23T16:20:39.232Z,26.12
2019-04-23T16:30:14.294Z,26.25
2019-04-23T16:40:33.166Z,26.12
